sensor_id;sensor_type;location;lat;lon;timestamp;P1;durP1;ratioP1;P2;durP2;ratioP2
29940;SDS011;16801;53.562;10.038;2022-11-24T00:00:09;1.97;;;1.73;;
29940;SDS011;16801;53.562;10.038;2022-11-24T00:03:45;5.33;;;2.67;;
29940;SDS011;16801;53.562;10.038;2022-11-24T00:07:12;4.97;;;2.53;;
29940;SDS011;16801;53.562;10.038;2022-11-24T00:10:33;11.30;;;3.80;;
29940;SDS011;16801;53.562;10.038;2022-11-24T00:13:54;3.80;;;2.60;;
29940;SDS011;16801;53.562;10.038;2022-11-24T00:17:16;3.97;;;3.23;;
29940;SDS011;16801;53.562;10.038;2022-11-24T00:20:39;5.23;;;2.70;;
29940;SDS011;16801;53.562;10.038;2022-11-24T00:24:00;5.73;;;2.83;;
29940;SDS011;16801;53.562;10.038;2022-11-24T00:27:22;4.87;;;3.23;;
29940;SDS011;16801;53.562;10.038;2022-11-24T00:30:42;3.50;;;3.20;;
29940;SDS011;16801;53.562;10.038;2022-11-24T00:34:05;2.63;;;2.00;;
29940;SDS011;16801;53.562;10.038;2022-11-24T00:37:30;3.70;;;3.17;;
29940;SDS011;16801;53.562;10.038;2022-11-24T00:40:51;3.37;;;2.53;;
29940;SDS011;16801;53.562;10.038;2022-11-24T00:44:12;4.43;;;2.63;;
29940;SDS011;16801;53.562;10.038;2022-11-24T00:47:33;3.67;;;2.73;;
29940;SDS011;16801;53.562;10.038;2022-11-24T00:50:55;4.17;;;2.63;;
29940;SDS011;16801;53.562;10.038;2022-11-24T00:54:18;3.00;;;2.70;;
29940;SDS011;16801;53.562;10.038;2022-11-24T00:57:39;5.97;;;2.93;;
29940;SDS011;16801;53.562;10.038;2022-11-24T01:01:01;4.70;;;3.10;;
29940;SDS011;16801;53.562;10.038;2022-11-24T01:04:23;5.60;;;2.33;;
29940;SDS011;16801;53.562;10.038;2022-11-24T01:07:44;2.80;;;2.53;;
29940;SDS011;16801;53.562;10.038;2022-11-24T01:11:08;2.30;;;2.03;;
29940;SDS011;16801;53.562;10.038;2022-11-24T01:14:30;5.37;;;3.77;;
29940;SDS011;16801;53.562;10.038;2022-11-24T01:17:52;3.03;;;2.70;;
29940;SDS011;16801;53.562;10.038;2022-11-24T01:21:13;8.53;;;2.70;;
29940;SDS011;16801;53.562;10.038;2022-11-24T01:24:34;4.27;;;2.77;;
29940;SDS011;16801;53.562;10.038;2022-11-24T01:27:56;2.47;;;2.27;;
29940;SDS011;16801;53.562;10.038;2022-11-24T01:31:17;2.60;;;2.40;;
29940;SDS011;16801;53.562;10.038;2022-11-24T01:34:38;2.50;;;2.30;;
29940;SDS011;16801;53.562;10.038;2022-11-24T01:37:59;3.10;;;2.80;;
29940;SDS011;16801;53.562;10.038;2022-11-24T01:41:21;4.20;;;2.53;;
29940;SDS011;16801;53.562;10.038;2022-11-24T01:44:46;4.23;;;2.50;;
29940;SDS011;16801;53.562;10.038;2022-11-24T01:48:14;4.87;;;4.00;;
29940;SDS011;16801;53.562;10.038;2022-11-24T01:51:40;2.80;;;2.60;;
29940;SDS011;16801;53.562;10.038;2022-11-24T01:55:05;6.07;;;2.77;;
29940;SDS011;16801;53.562;10.038;2022-11-24T01:58:32;2.87;;;2.30;;
29940;SDS011;16801;53.562;10.038;2022-11-24T02:01:55;5.60;;;4.47;;
29940;SDS011;16801;53.562;10.038;2022-11-24T02:05:19;3.13;;;2.93;;
29940;SDS011;16801;53.562;10.038;2022-11-24T02:08:44;5.80;;;3.63;;
29940;SDS011;16801;53.562;10.038;2022-11-24T02:12:09;4.03;;;3.17;;
29940;SDS011;16801;53.562;10.038;2022-11-24T02:15:31;4.20;;;2.50;;
29940;SDS011;16801;53.562;10.038;2022-11-24T02:18:53;4.40;;;2.87;;
29940;SDS011;16801;53.562;10.038;2022-11-24T02:22:17;3.10;;;2.53;;
29940;SDS011;16801;53.562;10.038;2022-11-24T02:25:43;3.63;;;2.23;;
29940;SDS011;16801;53.562;10.038;2022-11-24T02:29:14;5.33;;;3.50;;
29940;SDS011;16801;53.562;10.038;2022-11-24T02:32:35;3.80;;;3.37;;
29940;SDS011;16801;53.562;10.038;2022-11-24T02:35:59;2.53;;;2.33;;
29940;SDS011;16801;53.562;10.038;2022-11-24T02:39:20;3.67;;;2.50;;
29940;SDS011;16801;53.562;10.038;2022-11-24T02:42:42;2.97;;;2.77;;
29940;SDS011;16801;53.562;10.038;2022-11-24T02:46:06;5.93;;;2.53;;
29940;SDS011;16801;53.562;10.038;2022-11-24T02:49:27;3.20;;;2.90;;
29940;SDS011;16801;53.562;10.038;2022-11-24T02:52:48;2.57;;;2.17;;
29940;SDS011;16801;53.562;10.038;2022-11-24T02:56:09;4.87;;;4.10;;
29940;SDS011;16801;53.562;10.038;2022-11-24T02:59:31;3.20;;;2.13;;
29940;SDS011;16801;53.562;10.038;2022-11-24T03:02:53;4.30;;;2.27;;
29940;SDS011;16801;53.562;10.038;2022-11-24T03:06:14;2.60;;;2.40;;
29940;SDS011;16801;53.562;10.038;2022-11-24T03:09:35;2.63;;;2.37;;
29940;SDS011;16801;53.562;10.038;2022-11-24T03:12:57;4.50;;;3.07;;
29940;SDS011;16801;53.562;10.038;2022-11-24T03:16:18;3.47;;;2.33;;
29940;SDS011;16801;53.562;10.038;2022-11-24T03:19:41;3.23;;;2.93;;
29940;SDS011;16801;53.562;10.038;2022-11-24T03:23:02;2.93;;;2.17;;
29940;SDS011;16801;53.562;10.038;2022-11-24T03:26:23;3.70;;;1.97;;
29940;SDS011;16801;53.562;10.038;2022-11-24T03:29:44;3.00;;;2.27;;
29940;SDS011;16801;53.562;10.038;2022-11-24T03:33:05;5.33;;;2.43;;
29940;SDS011;16801;53.562;10.038;2022-11-24T03:36:28;3.70;;;2.80;;
29940;SDS011;16801;53.562;10.038;2022-11-24T03:39:49;3.83;;;2.83;;
29940;SDS011;16801;53.562;10.038;2022-11-24T03:43:09;3.47;;;2.10;;
29940;SDS011;16801;53.562;10.038;2022-11-24T03:46:31;2.70;;;2.47;;
29940;SDS011;16801;53.562;10.038;2022-11-24T03:49:52;6.10;;;2.73;;
29940;SDS011;16801;53.562;10.038;2022-11-24T03:53:14;3.27;;;3.03;;
29940;SDS011;16801;53.562;10.038;2022-11-24T03:56:35;2.70;;;2.50;;
29940;SDS011;16801;53.562;10.038;2022-11-24T03:59:56;2.40;;;2.13;;
29940;SDS011;16801;53.562;10.038;2022-11-24T04:03:17;4.27;;;2.90;;
29940;SDS011;16801;53.562;10.038;2022-11-24T04:06:38;2.33;;;1.87;;
29940;SDS011;16801;53.562;10.038;2022-11-24T04:10:01;4.20;;;2.37;;
29940;SDS011;16801;53.562;10.038;2022-11-24T04:13:23;2.17;;;1.97;;
29940;SDS011;16801;53.562;10.038;2022-11-24T04:16:44;2.33;;;2.17;;
29940;SDS011;16801;53.562;10.038;2022-11-24T04:20:06;2.53;;;2.33;;
29940;SDS011;16801;53.562;10.038;2022-11-24T04:23:28;3.43;;;2.53;;
29940;SDS011;16801;53.562;10.038;2022-11-24T04:26:50;3.07;;;2.70;;
29940;SDS011;16801;53.562;10.038;2022-11-24T04:30:11;4.47;;;2.67;;
29940;SDS011;16801;53.562;10.038;2022-11-24T04:33:32;2.60;;;2.33;;
29940;SDS011;16801;53.562;10.038;2022-11-24T04:36:53;3.07;;;2.13;;
29940;SDS011;16801;53.562;10.038;2022-11-24T04:40:15;2.20;;;2.00;;
29940;SDS011;16801;53.562;10.038;2022-11-24T04:43:38;3.33;;;2.80;;
29940;SDS011;16801;53.562;10.038;2022-11-24T04:46:59;3.97;;;2.00;;
29940;SDS011;16801;53.562;10.038;2022-11-24T04:50:20;6.50;;;2.50;;
29940;SDS011;16801;53.562;10.038;2022-11-24T04:53:41;3.80;;;2.80;;
29940;SDS011;16801;53.562;10.038;2022-11-24T04:57:02;2.73;;;2.53;;
29940;SDS011;16801;53.562;10.038;2022-11-24T05:00:24;3.53;;;3.03;;
29940;SDS011;16801;53.562;10.038;2022-11-24T05:03:45;3.13;;;2.93;;
29940;SDS011;16801;53.562;10.038;2022-11-24T05:07:06;7.53;;;3.60;;
29940;SDS011;16801;53.562;10.038;2022-11-24T05:10:30;3.33;;;2.93;;
29940;SDS011;16801;53.562;10.038;2022-11-24T05:13:57;5.07;;;3.50;;
29940;SDS011;16801;53.562;10.038;2022-11-24T05:17:19;2.60;;;2.37;;
29940;SDS011;16801;53.562;10.038;2022-11-24T05:20:40;3.73;;;2.80;;
29940;SDS011;16801;53.562;10.038;2022-11-24T05:24:03;6.07;;;2.57;;
29940;SDS011;16801;53.562;10.038;2022-11-24T05:27:24;2.73;;;2.43;;
29940;SDS011;16801;53.562;10.038;2022-11-24T05:30:45;3.00;;;2.33;;
29940;SDS011;16801;53.562;10.038;2022-11-24T05:34:07;3.13;;;2.93;;
29940;SDS011;16801;53.562;10.038;2022-11-24T05:37:28;3.47;;;2.37;;
29940;SDS011;16801;53.562;10.038;2022-11-24T05:40:51;3.17;;;2.30;;
29940;SDS011;16801;53.562;10.038;2022-11-24T05:44:12;3.10;;;2.87;;
29940;SDS011;16801;53.562;10.038;2022-11-24T05:47:33;2.93;;;2.60;;
29940;SDS011;16801;53.562;10.038;2022-11-24T05:50:55;4.83;;;4.33;;
29940;SDS011;16801;53.562;10.038;2022-11-24T05:54:17;2.60;;;2.40;;
29940;SDS011;16801;53.562;10.038;2022-11-24T05:57:38;4.47;;;2.33;;
29940;SDS011;16801;53.562;10.038;2022-11-24T06:00:59;6.23;;;2.83;;
29940;SDS011;16801;53.562;10.038;2022-11-24T06:04:20;4.03;;;2.83;;
29940;SDS011;16801;53.562;10.038;2022-11-24T06:07:42;5.50;;;3.33;;
29940;SDS011;16801;53.562;10.038;2022-11-24T06:11:03;3.63;;;2.70;;
29940;SDS011;16801;53.562;10.038;2022-11-24T06:14:37;3.73;;;3.33;;
29940;SDS011;16801;53.562;10.038;2022-11-24T06:17:58;10.93;;;3.40;;
29940;SDS011;16801;53.562;10.038;2022-11-24T06:21:19;3.10;;;2.80;;
29940;SDS011;16801;53.562;10.038;2022-11-24T06:24:41;16.90;;;4.23;;
29940;SDS011;16801;53.562;10.038;2022-11-24T06:28:03;5.70;;;4.47;;
29940;SDS011;16801;53.562;10.038;2022-11-24T06:31:25;5.93;;;3.40;;
29940;SDS011;16801;53.562;10.038;2022-11-24T06:34:46;5.60;;;2.53;;
29940;SDS011;16801;53.562;10.038;2022-11-24T06:38:07;4.40;;;3.53;;
29940;SDS011;16801;53.562;10.038;2022-11-24T06:41:29;6.10;;;4.00;;
29940;SDS011;16801;53.562;10.038;2022-11-24T06:44:50;4.97;;;3.27;;
29940;SDS011;16801;53.562;10.038;2022-11-24T06:48:11;4.47;;;2.60;;
29940;SDS011;16801;53.562;10.038;2022-11-24T06:51:32;6.33;;;2.57;;
29940;SDS011;16801;53.562;10.038;2022-11-24T06:54:53;2.47;;;2.27;;
29940;SDS011;16801;53.562;10.038;2022-11-24T06:58:15;3.93;;;2.93;;
29940;SDS011;16801;53.562;10.038;2022-11-24T07:01:36;4.17;;;3.30;;
29940;SDS011;16801;53.562;10.038;2022-11-24T07:04:56;7.60;;;3.37;;
29940;SDS011;16801;53.562;10.038;2022-11-24T07:08:17;5.53;;;3.53;;
29940;SDS011;16801;53.562;10.038;2022-11-24T07:11:38;4.70;;;2.83;;
29940;SDS011;16801;53.562;10.038;2022-11-24T07:15:01;4.93;;;4.00;;
29940;SDS011;16801;53.562;10.038;2022-11-24T07:18:22;2.20;;;2.00;;
29940;SDS011;16801;53.562;10.038;2022-11-24T07:21:43;6.97;;;3.83;;
29940;SDS011;16801;53.562;10.038;2022-11-24T07:25:04;5.37;;;4.13;;
29940;SDS011;16801;53.562;10.038;2022-11-24T07:28:28;5.97;;;3.33;;
29940;SDS011;16801;53.562;10.038;2022-11-24T07:31:51;4.50;;;3.43;;
29940;SDS011;16801;53.562;10.038;2022-11-24T07:35:12;6.90;;;2.90;;
29940;SDS011;16801;53.562;10.038;2022-11-24T07:38:33;6.60;;;4.73;;
29940;SDS011;16801;53.562;10.038;2022-11-24T07:41:54;6.00;;;3.30;;
29940;SDS011;16801;53.562;10.038;2022-11-24T07:45:15;5.70;;;4.13;;
29940;SDS011;16801;53.562;10.038;2022-11-24T07:48:38;5.13;;;3.17;;
29940;SDS011;16801;53.562;10.038;2022-11-24T07:51:59;4.27;;;3.80;;
29940;SDS011;16801;53.562;10.038;2022-11-24T07:55:20;4.43;;;4.00;;
29940;SDS011;16801;53.562;10.038;2022-11-24T07:58:41;6.93;;;3.37;;
29940;SDS011;16801;53.562;10.038;2022-11-24T08:02:02;6.00;;;3.10;;
29940;SDS011;16801;53.562;10.038;2022-11-24T08:05:24;5.20;;;3.50;;
29940;SDS011;16801;53.562;10.038;2022-11-24T08:08:45;4.70;;;3.13;;
29940;SDS011;16801;53.562;10.038;2022-11-24T08:12:06;9.40;;;4.30;;
29940;SDS011;16801;53.562;10.038;2022-11-24T08:15:27;5.13;;;2.93;;
29940;SDS011;16801;53.562;10.038;2022-11-24T08:18:48;4.43;;;2.90;;
29940;SDS011;16801;53.562;10.038;2022-11-24T08:22:12;5.60;;;2.97;;
29940;SDS011;16801;53.562;10.038;2022-11-24T08:25:33;5.87;;;4.03;;
29940;SDS011;16801;53.562;10.038;2022-11-24T08:28:56;7.93;;;3.57;;
29940;SDS011;16801;53.562;10.038;2022-11-24T08:32:17;7.63;;;3.07;;
29940;SDS011;16801;53.562;10.038;2022-11-24T08:35:38;8.97;;;4.10;;
29940;SDS011;16801;53.562;10.038;2022-11-24T08:39:00;4.93;;;3.30;;
29940;SDS011;16801;53.562;10.038;2022-11-24T08:42:22;9.37;;;4.13;;
29940;SDS011;16801;53.562;10.038;2022-11-24T08:45:42;4.67;;;3.73;;
29940;SDS011;16801;53.562;10.038;2022-11-24T08:49:03;4.13;;;3.80;;
29940;SDS011;16801;53.562;10.038;2022-11-24T08:52:25;7.33;;;5.37;;
29940;SDS011;16801;53.562;10.038;2022-11-24T08:55:47;5.07;;;2.63;;
29940;SDS011;16801;53.562;10.038;2022-11-24T08:59:10;7.50;;;3.67;;
29940;SDS011;16801;53.562;10.038;2022-11-24T09:02:31;5.40;;;4.13;;
29940;SDS011;16801;53.562;10.038;2022-11-24T09:05:52;6.67;;;4.30;;
29940;SDS011;16801;53.562;10.038;2022-11-24T09:09:13;7.53;;;4.50;;
29940;SDS011;16801;53.562;10.038;2022-11-24T09:12:35;7.43;;;4.77;;
29940;SDS011;16801;53.562;10.038;2022-11-24T09:15:56;8.60;;;3.47;;
29940;SDS011;16801;53.562;10.038;2022-11-24T09:19:22;4.10;;;2.90;;
29940;SDS011;16801;53.562;10.038;2022-11-24T09:22:42;8.63;;;4.37;;
29940;SDS011;16801;53.562;10.038;2022-11-24T09:26:06;5.70;;;3.47;;
29940;SDS011;16801;53.562;10.038;2022-11-24T09:29:30;33.33;;;4.73;;
29940;SDS011;16801;53.562;10.038;2022-11-24T09:32:50;4.67;;;3.30;;
29940;SDS011;16801;53.562;10.038;2022-11-24T09:36:11;8.00;;;3.77;;
29940;SDS011;16801;53.562;10.038;2022-11-24T09:39:33;8.30;;;3.37;;
29940;SDS011;16801;53.562;10.038;2022-11-24T09:42:55;3.83;;;2.53;;
29940;SDS011;16801;53.562;10.038;2022-11-24T09:46:22;4.90;;;4.37;;
29940;SDS011;16801;53.562;10.038;2022-11-24T09:49:52;10.40;;;3.43;;
29940;SDS011;16801;53.562;10.038;2022-11-24T09:53:19;9.80;;;4.10;;
29940;SDS011;16801;53.562;10.038;2022-11-24T09:56:49;8.53;;;4.30;;
29940;SDS011;16801;53.562;10.038;2022-11-24T10:00:11;3.43;;;2.70;;
29940;SDS011;16801;53.562;10.038;2022-11-24T10:03:36;3.77;;;2.60;;
29940;SDS011;16801;53.562;10.038;2022-11-24T10:07:03;5.70;;;4.67;;
29940;SDS011;16801;53.562;10.038;2022-11-24T10:10:33;3.87;;;3.40;;
29940;SDS011;16801;53.562;10.038;2022-11-24T10:14:15;7.47;;;4.10;;
29940;SDS011;16801;53.562;10.038;2022-11-24T10:17:56;7.83;;;3.57;;
29940;SDS011;16801;53.562;10.038;2022-11-24T10:21:33;4.47;;;2.70;;
29940;SDS011;16801;53.562;10.038;2022-11-24T10:25:11;7.97;;;2.83;;
29940;SDS011;16801;53.562;10.038;2022-11-24T10:28:38;4.67;;;3.57;;
29940;SDS011;16801;53.562;10.038;2022-11-24T10:32:03;9.77;;;3.17;;
29940;SDS011;16801;53.562;10.038;2022-11-24T10:35:34;4.83;;;3.33;;
29940;SDS011;16801;53.562;10.038;2022-11-24T10:39:00;14.97;;;3.37;;
29940;SDS011;16801;53.562;10.038;2022-11-24T10:42:27;11.37;;;5.07;;
29940;SDS011;16801;53.562;10.038;2022-11-24T10:45:50;4.73;;;2.13;;
29940;SDS011;16801;53.562;10.038;2022-11-24T10:49:13;8.90;;;3.70;;
29940;SDS011;16801;53.562;10.038;2022-11-24T10:52:39;3.50;;;3.20;;
29940;SDS011;16801;53.562;10.038;2022-11-24T10:56:03;3.30;;;2.73;;
29940;SDS011;16801;53.562;10.038;2022-11-24T10:59:28;5.47;;;3.60;;
29940;SDS011;16801;53.562;10.038;2022-11-24T11:03:08;8.23;;;3.20;;
29940;SDS011;16801;53.562;10.038;2022-11-24T11:06:31;5.87;;;2.80;;
29940;SDS011;16801;53.562;10.038;2022-11-24T11:13:49;6.43;;;3.27;;
29940;SDS011;16801;53.562;10.038;2022-11-24T11:21:00;5.20;;;3.07;;
29940;SDS011;16801;53.562;10.038;2022-11-24T11:24:23;2.93;;;2.60;;
29940;SDS011;16801;53.562;10.038;2022-11-24T11:27:44;9.53;;;4.13;;
29940;SDS011;16801;53.562;10.038;2022-11-24T11:31:22;13.47;;;7.03;;
29940;SDS011;16801;53.562;10.038;2022-11-24T11:34:43;5.87;;;3.40;;
29940;SDS011;16801;53.562;10.038;2022-11-24T11:38:08;2.73;;;2.50;;
29940;SDS011;16801;53.562;10.038;2022-11-24T11:41:31;9.80;;;2.70;;
29940;SDS011;16801;53.562;10.038;2022-11-24T11:44:54;8.17;;;4.87;;
29940;SDS011;16801;53.562;10.038;2022-11-24T11:48:25;10.40;;;2.50;;
29940;SDS011;16801;53.562;10.038;2022-11-24T11:51:57;10.80;;;3.00;;
29940;SDS011;16801;53.562;10.038;2022-11-24T11:55:32;13.80;;;3.27;;
29940;SDS011;16801;53.562;10.038;2022-11-24T12:02:54;12.83;;;4.90;;
29940;SDS011;16801;53.562;10.038;2022-11-24T12:06:45;4.10;;;3.27;;
29940;SDS011;16801;53.562;10.038;2022-11-24T12:10:18;5.77;;;3.93;;
29940;SDS011;16801;53.562;10.038;2022-11-24T12:13:51;5.77;;;3.07;;
29940;SDS011;16801;53.562;10.038;2022-11-24T12:17:27;5.17;;;2.97;;
29940;SDS011;16801;53.562;10.038;2022-11-24T12:20:55;7.73;;;4.70;;
29940;SDS011;16801;53.562;10.038;2022-11-24T12:24:29;6.27;;;3.13;;
29940;SDS011;16801;53.562;10.038;2022-11-24T12:28:02;11.50;;;3.87;;
29940;SDS011;16801;53.562;10.038;2022-11-24T12:31:35;5.33;;;2.53;;
29940;SDS011;16801;53.562;10.038;2022-11-24T12:35:07;14.17;;;3.40;;
29940;SDS011;16801;53.562;10.038;2022-11-24T12:38:40;4.10;;;3.20;;
29940;SDS011;16801;53.562;10.038;2022-11-24T12:42:16;8.07;;;3.63;;
29940;SDS011;16801;53.562;10.038;2022-11-24T12:45:48;6.00;;;4.40;;
29940;SDS011;16801;53.562;10.038;2022-11-24T12:49:18;7.47;;;4.53;;
29940;SDS011;16801;53.562;10.038;2022-11-24T12:52:48;3.63;;;2.53;;
29940;SDS011;16801;53.562;10.038;2022-11-24T12:56:12;4.13;;;3.67;;
29940;SDS011;16801;53.562;10.038;2022-11-24T12:59:38;5.47;;;3.30;;
29940;SDS011;16801;53.562;10.038;2022-11-24T13:03:08;6.77;;;3.87;;
29940;SDS011;16801;53.562;10.038;2022-11-24T13:06:43;7.50;;;2.87;;
29940;SDS011;16801;53.562;10.038;2022-11-24T13:10:25;9.93;;;4.30;;
29940;SDS011;16801;53.562;10.038;2022-11-24T13:13:55;4.83;;;3.30;;
29940;SDS011;16801;53.562;10.038;2022-11-24T13:17:28;5.03;;;3.20;;
29940;SDS011;16801;53.562;10.038;2022-11-24T13:20:51;3.77;;;2.93;;
29940;SDS011;16801;53.562;10.038;2022-11-24T13:24:23;4.93;;;2.77;;
29940;SDS011;16801;53.562;10.038;2022-11-24T13:27:46;6.73;;;3.53;;
29940;SDS011;16801;53.562;10.038;2022-11-24T13:31:20;3.60;;;3.30;;
29940;SDS011;16801;53.562;10.038;2022-11-24T13:35:01;3.93;;;2.53;;
29940;SDS011;16801;53.562;10.038;2022-11-24T13:38:37;4.77;;;3.40;;
29940;SDS011;16801;53.562;10.038;2022-11-24T13:42:01;6.13;;;3.20;;
29940;SDS011;16801;53.562;10.038;2022-11-24T13:49:12;4.57;;;3.20;;
29940;SDS011;16801;53.562;10.038;2022-11-24T13:52:44;7.07;;;2.93;;
29940;SDS011;16801;53.562;10.038;2022-11-24T13:56:18;3.67;;;3.30;;
29940;SDS011;16801;53.562;10.038;2022-11-24T13:59:41;8.67;;;3.17;;
29940;SDS011;16801;53.562;10.038;2022-11-24T14:03:03;8.30;;;3.50;;
29940;SDS011;16801;53.562;10.038;2022-11-24T14:06:36;3.83;;;2.97;;
29940;SDS011;16801;53.562;10.038;2022-11-24T14:10:02;7.13;;;3.37;;
29940;SDS011;16801;53.562;10.038;2022-11-24T14:13:24;5.70;;;2.97;;
29940;SDS011;16801;53.562;10.038;2022-11-24T14:16:47;11.17;;;4.13;;
29940;SDS011;16801;53.562;10.038;2022-11-24T14:20:15;5.03;;;2.33;;
29940;SDS011;16801;53.562;10.038;2022-11-24T14:23:42;5.50;;;2.70;;
29940;SDS011;16801;53.562;10.038;2022-11-24T14:27:10;7.00;;;3.43;;
29940;SDS011;16801;53.562;10.038;2022-11-24T14:30:34;10.60;;;4.87;;
29940;SDS011;16801;53.562;10.038;2022-11-24T14:34:06;8.70;;;3.10;;
29940;SDS011;16801;53.562;10.038;2022-11-24T14:37:33;6.37;;;3.23;;
29940;SDS011;16801;53.562;10.038;2022-11-24T14:40:55;6.03;;;3.10;;
29940;SDS011;16801;53.562;10.038;2022-11-24T14:44:18;7.60;;;3.80;;
29940;SDS011;16801;53.562;10.038;2022-11-24T14:47:42;10.87;;;3.00;;
29940;SDS011;16801;53.562;10.038;2022-11-24T14:51:05;15.67;;;3.27;;
29940;SDS011;16801;53.562;10.038;2022-11-24T14:54:31;5.80;;;3.30;;
29940;SDS011;16801;53.562;10.038;2022-11-24T14:57:52;12.67;;;5.13;;
29940;SDS011;16801;53.562;10.038;2022-11-24T15:01:21;9.87;;;4.13;;
29940;SDS011;16801;53.562;10.038;2022-11-24T15:04:54;10.30;;;3.93;;
29940;SDS011;16801;53.562;10.038;2022-11-24T15:08:16;7.10;;;3.57;;
29940;SDS011;16801;53.562;10.038;2022-11-24T15:11:37;6.23;;;4.07;;
29940;SDS011;16801;53.562;10.038;2022-11-24T15:14:59;7.40;;;4.83;;
29940;SDS011;16801;53.562;10.038;2022-11-24T15:18:24;9.83;;;3.07;;
29940;SDS011;16801;53.562;10.038;2022-11-24T15:21:51;4.87;;;2.80;;
29940;SDS011;16801;53.562;10.038;2022-11-24T15:28:54;7.67;;;6.00;;
29940;SDS011;16801;53.562;10.038;2022-11-24T15:32:15;9.37;;;4.40;;
29940;SDS011;16801;53.562;10.038;2022-11-24T15:35:37;6.73;;;4.10;;
29940;SDS011;16801;53.562;10.038;2022-11-24T15:38:58;7.80;;;4.23;;
29940;SDS011;16801;53.562;10.038;2022-11-24T15:42:19;10.13;;;5.10;;
29940;SDS011;16801;53.562;10.038;2022-11-24T15:45:39;8.20;;;3.87;;
29940;SDS011;16801;53.562;10.038;2022-11-24T15:49:00;5.03;;;3.63;;
29940;SDS011;16801;53.562;10.038;2022-11-24T15:52:23;10.60;;;4.90;;
29940;SDS011;16801;53.562;10.038;2022-11-24T15:55:44;12.40;;;3.93;;
29940;SDS011;16801;53.562;10.038;2022-11-24T15:59:05;8.37;;;4.20;;
29940;SDS011;16801;53.562;10.038;2022-11-24T16:02:26;9.50;;;4.27;;
29940;SDS011;16801;53.562;10.038;2022-11-24T16:05:47;4.07;;;3.13;;
29940;SDS011;16801;53.562;10.038;2022-11-24T16:09:14;8.00;;;4.43;;
29940;SDS011;16801;53.562;10.038;2022-11-24T16:12:36;8.83;;;4.23;;
29940;SDS011;16801;53.562;10.038;2022-11-24T16:15:57;8.03;;;3.67;;
29940;SDS011;16801;53.562;10.038;2022-11-24T16:19:20;8.87;;;3.67;;
29940;SDS011;16801;53.562;10.038;2022-11-24T16:22:42;10.27;;;4.07;;
29940;SDS011;16801;53.562;10.038;2022-11-24T16:26:06;7.37;;;4.03;;
29940;SDS011;16801;53.562;10.038;2022-11-24T16:29:27;10.47;;;4.87;;
29940;SDS011;16801;53.562;10.038;2022-11-24T16:32:58;10.53;;;3.83;;
29940;SDS011;16801;53.562;10.038;2022-11-24T16:36:36;6.07;;;3.47;;
29940;SDS011;16801;53.562;10.038;2022-11-24T16:39:58;9.87;;;2.97;;
29940;SDS011;16801;53.562;10.038;2022-11-24T16:52:05;8.37;;;3.37;;
29940;SDS011;16801;53.562;10.038;2022-11-24T16:55:33;6.30;;;3.43;;
29940;SDS011;16801;53.562;10.038;2022-11-24T16:58:55;5.53;;;3.70;;
29940;SDS011;16801;53.562;10.038;2022-11-24T17:02:16;13.30;;;4.00;;
29940;SDS011;16801;53.562;10.038;2022-11-24T17:05:39;9.73;;;4.37;;
29940;SDS011;16801;53.562;10.038;2022-11-24T17:09:00;5.00;;;3.47;;
29940;SDS011;16801;53.562;10.038;2022-11-24T17:12:20;6.83;;;3.87;;
29940;SDS011;16801;53.562;10.038;2022-11-24T17:15:41;11.83;;;4.47;;
29940;SDS011;16801;53.562;10.038;2022-11-24T17:19:03;10.67;;;7.20;;
29940;SDS011;16801;53.562;10.038;2022-11-24T17:22:26;9.53;;;7.83;;
29940;SDS011;16801;53.562;10.038;2022-11-24T17:25:47;17.70;;;8.23;;
29940;SDS011;16801;53.562;10.038;2022-11-24T17:29:09;17.80;;;7.50;;
29940;SDS011;16801;53.562;10.038;2022-11-24T17:32:35;12.03;;;6.33;;
29940;SDS011;16801;53.562;10.038;2022-11-24T17:35:59;4.97;;;4.30;;
29940;SDS011;16801;53.562;10.038;2022-11-24T17:39:32;7.13;;;3.57;;
29940;SDS011;16801;53.562;10.038;2022-11-24T17:43:04;7.63;;;4.83;;
29940;SDS011;16801;53.562;10.038;2022-11-24T17:46:28;15.20;;;6.10;;
29940;SDS011;16801;53.562;10.038;2022-11-24T17:49:50;5.83;;;4.30;;
29940;SDS011;16801;53.562;10.038;2022-11-24T17:53:11;6.23;;;3.90;;
29940;SDS011;16801;53.562;10.038;2022-11-24T17:56:35;5.77;;;3.20;;
29940;SDS011;16801;53.562;10.038;2022-11-24T17:59:58;11.60;;;4.07;;
29940;SDS011;16801;53.562;10.038;2022-11-24T18:03:20;5.70;;;4.07;;
29940;SDS011;16801;53.562;10.038;2022-11-24T18:06:44;6.10;;;4.00;;
29940;SDS011;16801;53.562;10.038;2022-11-24T18:10:06;12.53;;;5.13;;
29940;SDS011;16801;53.562;10.038;2022-11-24T18:13:32;7.13;;;4.70;;
29940;SDS011;16801;53.562;10.038;2022-11-24T18:16:53;5.93;;;4.60;;
29940;SDS011;16801;53.562;10.038;2022-11-24T18:20:14;8.27;;;4.67;;
29940;SDS011;16801;53.562;10.038;2022-11-24T18:23:36;9.23;;;4.40;;
29940;SDS011;16801;53.562;10.038;2022-11-24T18:26:57;6.53;;;5.47;;
29940;SDS011;16801;53.562;10.038;2022-11-24T18:30:21;7.97;;;5.03;;
29940;SDS011;16801;53.562;10.038;2022-11-24T18:33:42;9.17;;;4.90;;
29940;SDS011;16801;53.562;10.038;2022-11-24T18:37:04;7.77;;;4.13;;
29940;SDS011;16801;53.562;10.038;2022-11-24T18:40:27;5.10;;;3.47;;
29940;SDS011;16801;53.562;10.038;2022-11-24T18:43:48;7.30;;;4.10;;
29940;SDS011;16801;53.562;10.038;2022-11-24T18:47:14;3.63;;;3.00;;
29940;SDS011;16801;53.562;10.038;2022-11-24T18:50:39;4.87;;;3.70;;
29940;SDS011;16801;53.562;10.038;2022-11-24T18:54:00;5.93;;;4.17;;
29940;SDS011;16801;53.562;10.038;2022-11-24T18:57:30;6.90;;;4.30;;
29940;SDS011;16801;53.562;10.038;2022-11-24T19:00:52;5.23;;;3.77;;
29940;SDS011;16801;53.562;10.038;2022-11-24T19:04:15;8.70;;;4.00;;
29940;SDS011;16801;53.562;10.038;2022-11-24T19:07:39;4.00;;;3.00;;
29940;SDS011;16801;53.562;10.038;2022-11-24T19:11:00;5.53;;;4.63;;
29940;SDS011;16801;53.562;10.038;2022-11-24T19:14:40;10.53;;;3.97;;
29940;SDS011;16801;53.562;10.038;2022-11-24T19:18:02;8.83;;;3.53;;
29940;SDS011;16801;53.562;10.038;2022-11-24T19:21:33;5.60;;;4.20;;
29940;SDS011;16801;53.562;10.038;2022-11-24T19:25:01;6.80;;;3.77;;
29940;SDS011;16801;53.562;10.038;2022-11-24T19:28:23;6.53;;;3.33;;
29940;SDS011;16801;53.562;10.038;2022-11-24T19:31:45;5.50;;;4.23;;
29940;SDS011;16801;53.562;10.038;2022-11-24T19:35:16;7.73;;;5.27;;
29940;SDS011;16801;53.562;10.038;2022-11-24T19:38:39;4.47;;;3.97;;
29940;SDS011;16801;53.562;10.038;2022-11-24T19:42:02;6.90;;;5.40;;
29940;SDS011;16801;53.562;10.038;2022-11-24T19:45:24;9.03;;;5.03;;
29940;SDS011;16801;53.562;10.038;2022-11-24T19:48:47;20.17;;;14.40;;
29940;SDS011;16801;53.562;10.038;2022-11-24T19:52:12;20.17;;;14.83;;
29940;SDS011;16801;53.562;10.038;2022-11-24T19:55:35;34.60;;;21.47;;
29940;SDS011;16801;53.562;10.038;2022-11-24T19:58:56;33.33;;;22.77;;
29940;SDS011;16801;53.562;10.038;2022-11-24T20:02:17;19.07;;;10.87;;
29940;SDS011;16801;53.562;10.038;2022-11-24T20:05:37;14.60;;;9.73;;
29940;SDS011;16801;53.562;10.038;2022-11-24T20:08:59;13.57;;;7.40;;
29940;SDS011;16801;53.562;10.038;2022-11-24T20:12:21;19.10;;;11.33;;
29940;SDS011;16801;53.562;10.038;2022-11-24T20:15:42;6.90;;;4.23;;
29940;SDS011;16801;53.562;10.038;2022-11-24T20:19:03;10.13;;;6.57;;
29940;SDS011;16801;53.562;10.038;2022-11-24T20:22:25;6.83;;;4.77;;
29940;SDS011;16801;53.562;10.038;2022-11-24T20:25:46;7.07;;;3.83;;
29940;SDS011;16801;53.562;10.038;2022-11-24T20:29:09;9.13;;;5.67;;
29940;SDS011;16801;53.562;10.038;2022-11-24T20:32:31;28.80;;;13.00;;
29940;SDS011;16801;53.562;10.038;2022-11-24T20:35:52;7.53;;;5.90;;